Time;durP1;ratioP1;P1;durP2;ratioP2;P2;SDS_P1;SDS_P2;PMS_P1;PMS_P2;Temp;Humidity;BMP_temperature;BMP_pressure;BME280_temperature;BME280_humidity;BME280_pressure;Samples;Min_cycle;Max_cycle;Signal;HPM_P1;HPM_P2
2023/07/23 00:02:50;;;;;;;9.30;6.00;;;;;;;17.76;50.40;100661.19;15432091;28;20053;-51
2023/07/23 00:10:24;;;;;;;7.32;5.45;;;;;;;17.95;50.22;100642.56;15432545;28;20050;-53
2023/07/23 00:17:58;;;;;;;7.18;5.35;;;;;;;17.92;50.39;100637.69;15432288;28;20138;-50
2023/07/23 00:25:35;;;;;;;8.10;5.65;;;;;;;17.70;50.93;100632.34;15376731;28;20491;-52
2023/07/23 00:33:08;;;;;;;7.78;5.18;;;;;;;17.99;50.27;100611.09;15426509;28;20138;-53
2023/07/23 00:40:42;;;;;;;6.45;5.20;;;;;;;17.71;50.18;100607.63;15405991;28;20077;-54
2023/07/23 00:48:16;;;;;;;8.20;5.47;;;;;;;17.48;50.94;100608.81;15385771;28;20114;-51
2023/07/23 00:55:52;;;;;;;7.10;5.20;;;;;;;17.43;51.44;100599.81;15391437;28;20118;-51
2023/07/23 01:03:25;;;;;;;7.75;4.93;;;;;;;17.55;51.00;100595.03;15395342;28;20373;-50
2023/07/23 01:11:02;;;;;;;7.35;5.22;;;;;;;17.56;51.63;100583.09;15403968;28;20136;-52
2023/07/23 01:18:37;;;;;;;6.97;5.32;;;;;;;17.86;50.79;100571.66;15422139;28;20034;-50
2023/07/23 01:26:12;;;;;;;6.88;5.00;;;;;;;18.09;50.79;100570.41;15410536;28;20051;-52
2023/07/23 01:33:46;;;;;;;7.13;5.40;;;;;;;17.86;52.00;100579.81;15426596;28;20053;-51
2023/07/23 01:41:20;;;;;;;8.93;5.72;;;;;;;17.83;53.93;100578.44;15410977;28;20042;-50
2023/07/23 01:48:53;;;;;;;7.88;5.28;;;;;;;17.52;54.81;100584.69;15409932;28;20049;-50
2023/07/23 01:56:27;;;;;;;7.57;5.60;;;;;;;17.25;57.73;100606.44;15382085;28;20071;-53
2023/07/23 02:04:01;;;;;;;8.63;5.88;;;;;;;16.91;59.61;100628.34;15366085;28;20396;-48
2023/07/23 02:11:37;;;;;;;10.32;6.38;;;;;;;16.58;59.50;100640.97;15395026;28;20127;-52
2023/07/23 02:19:18;;;;;;;10.40;6.27;;;;;;;16.46;61.36;100650.28;15439206;28;20047;-48
2023/07/23 02:26:52;;;;;;;10.38;6.93;;;;;;;16.90;61.81;100631.34;15409282;28;20384;-50
2023/07/23 02:34:25;;;;;;;10.77;6.88;;;;;;;17.41;62.01;100626.41;15409193;28;20055;-50
2023/07/23 02:42:00;;;;;;;9.70;6.95;;;;;;;17.37;63.40;100633.41;15426030;28;20118;-52
2023/07/23 02:49:32;;;;;;;9.60;6.97;;;;;;;17.54;63.70;100629.50;15422884;28;20061;-54
2023/07/23 02:57:07;;;;;;;9.75;7.22;;;;;;;17.40;63.00;100643.78;15402044;28;20051;-48
2023/07/23 03:04:41;;;;;;;9.93;6.82;;;;;;;17.07;61.95;100654.56;15418697;28;20045;-50
2023/07/23 03:12:15;;;;;;;12.90;7.20;;;;;;;17.10;63.05;100669.50;15436217;28;20043;-54
2023/07/23 03:19:49;;;;;;;9.80;7.03;;;;;;;16.53;64.94;100661.75;15449656;28;20102;-48
2023/07/23 03:27:23;;;;;;;10.27;7.20;;;;;;;16.44;64.91;100652.44;15433677;28;20066;-49
2023/07/23 03:34:56;;;;;;;9.20;7.30;;;;;;;16.86;65.46;100651.88;15416416;28;20184;-48
2023/07/23 03:42:30;;;;;;;13.00;7.93;;;;;;;17.03;64.37;100656.16;15432774;28;20069;-52
2023/07/23 03:50:07;;;;;;;11.05;7.93;;;;;;;17.05;64.43;100647.75;15432144;28;20051;-51
2023/07/23 03:57:41;;;;;;;10.52;7.80;;;;;;;16.56;66.45;100645.00;15432244;28;20046;-48
2023/07/23 04:05:16;;;;;;;11.52;7.80;;;;;;;16.71;65.57;100647.91;15415672;28;20079;-52
2023/07/23 04:12:50;;;;;;;11.57;8.15;;;;;;;17.16;63.37;100656.81;15431466;28;20046;-52
2023/07/23 04:20:23;;;;;;;12.38;7.63;;;;;;;16.64;65.45;100649.16;15433494;28;20068;-51
2023/07/23 04:27:57;;;;;;;10.23;7.72;;;;;;;16.95;64.30;100650.38;15414078;28;20125;-50
2023/07/23 04:35:30;;;;;;;10.63;7.80;;;;;;;16.97;63.58;100645.50;15413722;28;20078;-52
2023/07/23 04:43:04;;;;;;;12.20;8.10;;;;;;;17.00;63.33;100645.00;15430003;28;20039;-53
2023/07/23 04:50:37;;;;;;;11.68;8.43;;;;;;;17.24;63.22;100634.66;15429295;28;20074;-54
2023/07/23 04:58:12;;;;;;;12.52;8.82;;;;;;;17.19;63.51;100640.03;15412994;28;20145;-51
2023/07/23 05:05:48;;;;;;;14.27;8.93;;;;;;;17.21;63.46;100637.91;15430083;28;20086;-50
2023/07/23 05:13:23;;;;;;;10.93;8.30;;;;;;;17.11;63.80;100643.19;15429342;28;20054;-47
2023/07/23 05:20:56;;;;;;;10.98;7.80;;;;;;;17.23;62.78;100633.84;15428582;28;20047;-50
2023/07/23 05:28:30;;;;;;;13.18;8.25;;;;;;;16.84;63.97;100644.03;15410887;28;20051;-49
2023/07/23 05:36:04;;;;;;;13.02;8.52;;;;;;;16.83;63.72;100645.06;15428693;28;20059;-52
2023/07/23 05:43:38;;;;;;;10.60;8.52;;;;;;;17.44;63.70;100637.56;15428242;28;20047;-49
2023/07/23 05:51:11;;;;;;;12.93;8.48;;;;;;;17.74;61.87;100630.78;15410470;28;20089;-50
2023/07/23 05:58:45;;;;;;;15.70;9.27;;;;;;;17.71;61.62;100623.91;15427206;28;20135;-50
2023/07/23 06:06:18;;;;;;;10.60;8.23;;;;;;;18.05;60.96;100615.50;15426818;28;20492;-50
2023/07/23 06:13:58;;;;;;;13.88;9.18;;;;;;;17.95;61.11;100624.41;15425190;28;20039;-51
2023/07/23 06:21:31;;;;;;;9.73;7.60;;;;;;;18.19;60.52;100607.69;15441209;28;20066;-50
2023/07/23 06:29:09;;;;;;;10.23;7.97;;;;;;;18.40;60.30;100606.69;15433027;28;20042;-53
2023/07/23 06:36:42;;;;;;;11.90;7.65;;;;;;;18.29;59.34;100600.41;15437889;28;20046;-51
2023/07/23 06:44:16;;;;;;;10.05;7.00;;;;;;;19.16;57.08;100597.94;15420692;28;20476;-49
2023/07/23 06:51:49;;;;;;;8.10;6.63;;;;;;;19.35;57.74;100599.06;15436719;28;20042;-52
2023/07/23 06:59:23;;;;;;;7.95;6.25;;;;;;;19.81;56.68;100601.75;15420102;28;20045;-49
2023/07/23 07:06:56;;;;;;;8.30;6.50;;;;;;;20.47;54.92;100595.34;15437480;28;20051;-54
2023/07/23 07:14:32;;;;;;;8.82;5.97;;;;;;;20.94;52.59;100584.97;15436007;28;20047;-55
2023/07/23 07:22:05;;;;;;;7.15;4.97;;;;;;;20.06;52.77;100581.84;15435763;28;20054;-48
2023/07/23 07:29:41;;;;;;;7.13;5.45;;;;;;;20.86;50.99;100572.75;15435093;28;20054;-51
2023/07/23 07:37:14;;;;;;;7.72;5.90;;;;;;;20.83;52.15;100576.84;15434286;28;20079;-54
2023/07/23 07:44:48;;;;;;;;;;;;;;;20.72;53.32;100588.13;15416954;28;20047;-50
2023/07/23 07:52:21;;;;;;;9.45;5.93;;;;;;;21.15;50.96;100564.63;15435523;28;19957;-51
2023/07/23 07:59:57;;;;;;;7.38;5.57;;;;;;;20.97;51.09;100551.66;15398944;28;20053;-50
2023/07/23 08:07:31;;;;;;;9.38;4.85;;;;;;;21.36;51.09;100547.03;15462486;28;20046;-53
2023/07/23 08:15:06;;;;;;;6.35;5.10;;;;;;;21.14;50.83;100535.72;15431687;28;20066;-47
2023/07/23 08:22:42;;;;;;;8.25;4.72;;;;;;;21.39;50.22;100537.44;15433018;28;20443;-49
2023/07/23 08:30:21;;;;;;;8.32;4.90;;;;;;;21.53;49.08;100541.13;15432148;28;20066;-54
2023/07/23 08:37:55;;;;;;;7.43;4.72;;;;;;;21.15;48.46;100549.06;15458137;28;20046;-51
2023/07/23 08:45:57;;;;;;;9.48;4.82;;;;;;;21.36;48.79;100530.66;15459421;28;20050;-50
2023/07/23 08:53:33;;;;;;;7.50;4.47;;;;;;;21.33;47.71;100538.59;15429294;28;20046;-55
2023/07/23 09:01:09;;;;;;;5.63;4.45;;;;;;;21.84;47.84;100527.16;15463231;28;20517;-56
2023/07/23 09:08:41;;;;;;;8.07;4.70;;;;;;;22.48;45.08;100512.16;15412600;28;20039;-54
2023/07/23 09:16:24;;;;;;;6.70;4.40;;;;;;;22.28;44.36;100513.22;15420983;28;20046;-55
2023/07/23 09:23:57;;;;;;;5.30;4.23;;;;;;;22.71;44.93;100507.72;15403661;28;20081;-60
2023/07/23 09:31:32;;;;;;;7.15;4.32;;;;;;;22.45;43.70;100499.06;15411563;28;20101;-57
2023/07/23 09:39:07;;;;;;;6.82;4.57;;;;;;;22.91;43.29;100480.03;15379710;28;20047;-60
2023/07/23 09:46:46;;;;;;;6.63;4.72;;;;;;;23.41;42.28;100460.28;15404783;28;20213;-62
2023/07/23 09:54:21;;;;;;;9.60;4.32;;;;;;;23.82;40.59;100470.47;15413976;28;20134;-49
2023/07/23 10:01:57;;;;;;;8.95;4.18;;;;;;;24.75;38.62;100470.06;15378911;28;20047;-51
2023/07/23 10:09:30;;;;;;;6.32;4.10;;;;;;;26.01;38.22;100439.50;15427155;28;20043;-56
2023/07/23 10:17:06;;;;;;;6.53;4.38;;;;;;;25.60;37.87;100446.16;15426739;28;20054;-57
2023/07/23 10:24:40;;;;;;;5.05;4.00;;;;;;;25.64;38.29;100428.69;15377889;28;20418;-57
2023/07/23 10:32:26;;;;;;;5.38;4.10;;;;;;;25.54;37.78;100414.44;15424086;28;20372;-48
2023/07/23 10:40:03;;;;;;;7.05;4.22;;;;;;;25.81;37.23;100405.97;15408724;28;20050;-53
2023/07/23 10:47:39;;;;;;;6.50;4.40;;;;;;;25.65;37.63;100396.56;15425839;28;20078;-52
2023/07/23 10:55:12;;;;;;;6.90;4.10;;;;;;;25.74;37.98;100380.88;15425246;28;20126;-53
2023/07/23 11:02:48;;;;;;;6.32;4.07;;;;;;;26.28;36.71;100358.59;15426666;28;20122;-51
2023/07/23 11:10:22;;;;;;;4.82;3.83;;;;;;;26.53;36.01;100349.53;15408680;28;20039;-56
2023/07/23 11:17:56;;;;;;;10.07;3.65;;;;;;;27.07;33.95;100332.53;15435217;28;20047;-53
2023/07/23 11:25:29;;;;;;;6.75;3.80;;;;;;;26.91;34.95;100318.50;15436426;28;20042;-52
2023/07/23 11:33:04;;;;;;;5.30;3.53;;;;;;;26.53;34.06;100326.69;15435334;28;20043;-55
2023/07/23 11:40:37;;;;;;;5.07;3.10;;;;;;;27.64;31.62;100308.03;15434650;28;20073;-50
2023/07/23 11:48:17;;;;;;;6.97;3.10;;;;;;;28.35;31.85;100289.78;15434453;28;20053;-49
2023/07/23 11:55:49;;;;;;;4.70;3.42;;;;;;;28.76;30.27;100277.78;15434648;28;20401;-53
2023/07/23 12:03:23;;;;;;;6.85;2.90;;;;;;;27.76;29.52;100265.97;15433683;28;20122;-51
2023/07/23 12:10:57;;;;;;;8.00;2.65;;;;;;;28.16;28.21;100249.69;15433503;28;20126;-55
2023/07/23 12:18:31;;;;;;;7.20;2.80;;;;;;;27.50;30.23;100244.09;15433097;28;20062;-49
2023/07/23 12:26:09;;;;;;;4.05;2.38;;;;;;;28.09;29.10;100234.84;15414721;28;20050;-54
2023/07/23 12:33:43;;;;;;;5.70;2.45;;;;;;;27.89;27.51;100233.75;15448625;28;20334;-52
2023/07/23 12:41:17;;;;;;;2.92;2.20;;;;;;;27.61;28.68;100214.19;15430789;28;20162;-54
2023/07/23 12:48:52;;;;;;;6.28;2.35;;;;;;;27.34;28.53;100213.56;15432077;28;20051;-49
2023/07/23 12:56:25;;;;;;;5.63;2.42;;;;;;;27.56;28.63;100220.72;15430475;28;20039;-47
2023/07/23 13:03:59;;;;;;;4.95;2.85;;;;;;;27.16;29.11;100214.84;15413162;28;20507;-48
2023/07/23 13:11:32;;;;;;;6.15;2.70;;;;;;;26.91;28.33;100217.41;15426653;28;20142;-46
2023/07/23 13:19:06;;;;;;;5.22;2.90;;;;;;;27.26;28.91;100230.16;15428081;28;20043;-53
2023/07/23 13:26:40;;;;;;;4.85;2.67;;;;;;;27.32;28.09;100223.31;15428275;28;20054;-49
2023/07/23 13:34:14;;;;;;;3.83;2.65;;;;;;;27.19;28.54;100214.19;15400851;28;20289;-49
2023/07/23 13:41:47;;;;;;;3.90;2.83;;;;;;;26.45;29.00;100210.81;15421935;28;20078;-48
2023/07/23 13:49:22;;;;;;;6.43;2.80;;;;;;;26.43;29.52;100209.50;15427892;28;20118;-51
2023/07/23 13:56:55;;;;;;;5.57;3.17;;;;;;;26.31;29.69;100212.13;15428120;28;20051;-52
2023/07/23 14:04:29;;;;;;;5.03;3.20;;;;;;;25.95;29.17;100240.84;15427115;28;20069;-50
2023/07/23 14:12:06;;;;;;;10.68;3.33;;;;;;;25.78;28.46;100255.41;15425980;28;20043;-51
2023/07/23 14:19:40;;;;;;;7.30;3.67;;;;;;;25.24;29.21;100260.34;15420232;28;20047;-51
2023/07/23 14:27:12;;;;;;;13.35;4.30;;;;;;;25.17;29.83;100287.47;15418679;28;20105;-52
2023/07/23 14:34:46;;;;;;;7.55;3.60;;;;;;;24.99;31.13;100286.56;15402002;28;20050;-51
2023/07/23 14:42:19;;;;;;;6.10;3.70;;;;;;;24.55;32.30;100284.78;15414357;28;20381;-49
2023/07/23 14:49:53;;;;;;;5.60;3.65;;;;;;;24.67;32.83;100296.78;15405509;28;20361;-47
2023/07/23 14:57:26;;;;;;;7.32;3.70;;;;;;;24.63;33.13;100297.75;15401501;28;20051;-49
2023/07/23 15:05:00;;;;;;;4.43;3.40;;;;;;;24.59;33.73;100307.72;15397401;28;20063;-46
2023/07/23 15:12:34;;;;;;;8.45;3.40;;;;;;;24.50;34.03;100306.84;15373611;28;20042;-47
2023/07/23 15:20:10;;;;;;;8.18;3.33;;;;;;;24.66;35.14;100300.63;15390808;28;20053;-48
2023/07/23 15:27:44;;;;;;;5.15;3.20;;;;;;;24.04;36.83;100302.47;15400491;28;20070;-48
2023/07/23 15:35:19;;;;;;;5.20;3.13;;;;;;;24.47;36.80;100302.78;15434171;28;20081;-53
2023/07/23 15:42:52;;;;;;;3.97;2.83;;;;;;;24.21;36.81;100290.84;15435601;28;20051;-48
2023/07/23 15:50:27;;;;;;;3.63;2.60;;;;;;;24.25;37.40;100306.34;15434119;28;20483;-48
2023/07/23 15:58:01;;;;;;;4.93;2.67;;;;;;;24.56;37.62;100297.38;15431802;28;20058;-53
2023/07/23 16:05:35;;;;;;;4.45;2.83;;;;;;;24.29;39.00;100290.06;15432013;28;20429;-51
2023/07/23 16:13:10;;;;;;;6.57;2.78;;;;;;;24.82;38.37;100303.78;15427858;28;20069;-52
2023/07/23 16:20:45;;;;;;;3.63;2.38;;;;;;;24.39;38.70;100300.84;15430985;28;20039;-49
2023/07/23 16:28:18;;;;;;;5.45;2.80;;;;;;;24.78;37.91;100294.56;15420394;28;20047;-48
2023/07/23 16:36:00;;;;;;;6.18;2.90;;;;;;;24.26;38.39;100298.94;15385358;28;20038;-52
2023/07/23 16:43:36;;;;;;;6.10;3.10;;;;;;;24.21;39.27;100299.06;15431197;28;20046;-54
2023/07/23 16:51:13;;;;;;;6.85;3.10;;;;;;;24.12;39.59;100297.06;15413921;28;20097;-53
2023/07/23 16:58:49;;;;;;;4.82;3.03;;;;;;;24.55;39.48;100291.06;15431264;28;20043;-49
2023/07/23 17:06:27;;;;;;;6.13;3.00;;;;;;;24.30;39.82;100294.44;15412271;28;20061;-50
2023/07/23 17:14:00;;;;;;;6.53;3.17;;;;;;;24.03;40.13;100307.16;15428417;28;20057;-50
2023/07/23 17:21:36;;;;;;;5.45;3.00;;;;;;;23.93;40.84;100308.22;15450638;23;20051;-49
2023/07/23 17:29:14;;;;;;;4.40;2.63;;;;;;;23.82;41.48;100322.44;15435506;28;20054;-51
2023/07/23 17:36:52;;;;;;;4.85;2.83;;;;;;;23.46;42.12;100325.16;15434594;28;20591;-47
2023/07/23 17:44:27;;;;;;;5.35;2.80;;;;;;;23.11;43.17;100319.28;15416926;28;20031;-48
2023/07/23 17:52:02;;;;;;;8.43;2.92;;;;;;;23.34;43.03;100328.41;15432451;28;20043;-49
2023/07/23 17:59:34;;;;;;;4.80;2.88;;;;;;;23.19;43.84;100334.19;15415745;28;20065;-47
2023/07/23 18:07:09;;;;;;;5.60;2.65;;;;;;;23.16;43.10;100332.84;15431998;28;20135;-47
2023/07/23 18:14:42;;;;;;;3.60;2.33;;;;;;;22.90;45.16;100341.56;15433156;28;20094;-50
2023/07/23 18:22:16;;;;;;;4.47;2.17;;;;;;;22.58;45.47;100349.78;15422172;28;20042;-51
2023/07/23 18:29:49;;;;;;;5.82;2.05;;;;;;;22.20;47.56;100355.34;15437405;28;20049;-51
2023/07/23 18:37:24;;;;;;;3.97;2.10;;;;;;;22.59;46.54;100351.41;15455722;28;20050;-48
2023/07/23 18:44:57;;;;;;;4.32;2.10;;;;;;;22.17;47.21;100353.19;15439688;28;20518;-49
2023/07/23 18:52:32;;;;;;;3.00;2.13;;;;;;;22.63;46.49;100352.44;15450960;28;20061;-58
2023/07/23 19:00:07;;;;;;;8.63;2.45;;;;;;;22.47;47.50;100345.59;15433946;28;20492;-52
2023/07/23 19:07:41;;;;;;;4.97;2.20;;;;;;;23.00;47.11;100353.44;15442587;28;20050;-49
2023/07/23 19:15:14;;;;;;;4.85;2.55;;;;;;;23.06;47.26;100365.91;15434541;28;20391;-53
2023/07/23 19:22:48;;;;;;;3.35;2.20;;;;;;;22.75;48.57;100357.41;15423600;28;20043;-50
2023/07/23 19:30:21;;;;;;;3.42;2.58;;;;;;;22.86;48.89;100353.41;15440935;28;20154;-50
2023/07/23 19:37:55;;;;;;;3.03;2.25;;;;;;;22.56;49.86;100360.19;15429782;28;20118;-48
2023/07/23 19:45:28;;;;;;;4.22;2.38;;;;;;;22.27;51.30;100361.22;15420946;28;20046;-54
2023/07/23 19:53:02;;;;;;;5.38;2.33;;;;;;;22.50;50.78;100358.69;15440377;28;20054;-53
2023/07/23 20:00:35;;;;;;;5.32;2.78;;;;;;;22.40;50.94;100355.00;15439430;28;20488;-50
2023/07/23 20:08:09;;;;;;;4.25;2.60;;;;;;;22.27;51.86;100339.34;15438608;28;20295;-50
2023/07/23 20:15:44;;;;;;;4.50;2.90;;;;;;;22.06;51.93;100335.28;15411792;28;20089;-53
2023/07/23 20:23:18;;;;;;;4.15;2.55;;;;;;;21.97;52.56;100340.63;15428770;28;20450;-54
2023/07/23 20:30:52;;;;;;;4.40;2.25;;;;;;;21.50;53.78;100338.81;15411180;28;20074;-50
2023/07/23 20:38:27;;;;;;;7.90;2.97;;;;;;;21.36;53.98;100335.97;15425936;28;20569;-54
2023/07/23 20:46:00;;;;;;;4.30;2.40;;;;;;;21.31;54.15;100336.84;15428488;28;20043;-49
2023/07/23 20:53:36;;;;;;;6.95;2.92;;;;;;;21.13;54.28;100329.41;15427264;28;20055;-52
2023/07/23 21:01:08;;;;;;;7.03;2.80;;;;;;;20.73;55.93;100344.25;15408537;28;20405;-48
2023/07/23 21:08:42;;;;;;;5.50;3.00;;;;;;;20.47;57.32;100335.47;15394054;28;20198;-53
2023/07/23 21:16:15;;;;;;;8.48;3.40;;;;;;;20.37;57.79;100330.91;15419963;28;20046;-50
2023/07/23 21:23:52;;;;;;;;;;;;;;;20.05;58.81;100336.88;15431136;28;20075;-51
2023/07/23 21:31:26;;;;;;;6.80;3.30;;;;;;;20.06;58.87;100336.59;15434583;28;19977;-50
2023/07/23 21:39:00;;;;;;;3.80;3.10;;;;;;;20.04;58.61;100319.72;15432947;28;20407;-50
2023/07/23 21:46:35;;;;;;;3.95;3.00;;;;;;;20.16;57.95;100319.38;15430598;28;20054;-49
2023/07/23 21:54:09;;;;;;;6.20;3.10;;;;;;;20.22;56.83;100317.41;15416897;28;20081;-48
2023/07/23 22:01:42;;;;;;;4.47;2.90;;;;;;;20.51;54.82;100303.84;15447541;28;20097;-47
2023/07/23 22:09:16;;;;;;;5.63;3.28;;;;;;;20.46;53.87;100296.47;15431624;28;20054;-48
2023/07/23 22:16:49;;;;;;;6.03;3.13;;;;;;;20.71;54.04;100279.09;15427194;28;20053;-52
2023/07/23 22:24:23;;;;;;;4.72;2.90;;;;;;;20.77;54.18;100271.69;15424723;28;20222;-47
2023/07/23 22:31:57;;;;;;;5.55;3.22;;;;;;;20.65;55.37;100261.16;15431336;28;20050;-51
2023/07/23 22:39:31;;;;;;;;;;;;;;;20.87;55.00;100256.00;15432577;28;20043;-48
2023/07/23 22:47:04;;;;;;;4.05;2.95;;;;;;;20.72;53.96;100255.38;15431536;28;20307;-49
2023/07/23 22:54:38;;;;;;;7.28;3.50;;;;;;;20.76;53.68;100251.78;15398024;28;20096;-50
2023/07/23 23:02:11;;;;;;;7.57;3.08;;;;;;;20.73;54.88;100246.06;15430852;28;20046;-52
2023/07/23 23:09:45;;;;;;;6.28;2.80;;;;;;;20.94;53.37;100246.63;15433778;28;20419;-53
2023/07/23 23:17:18;;;;;;;5.38;2.83;;;;;;;21.08;52.64;100251.13;15451046;23;20062;-47
2023/07/23 23:24:53;;;;;;;4.20;2.95;;;;;;;20.77;53.48;100233.50;15529042;28;20160;-47
2023/07/23 23:32:26;;;;;;;4.63;3.00;;;;;;;20.93;52.92;100226.72;15433665;28;20077;-47
2023/07/23 23:40:00;;;;;;;6.20;3.10;;;;;;;20.86;53.19;100218.91;15437087;28;20410;-51
2023/07/23 23:47:33;;;;;;;11.50;3.25;;;;;;;20.82;52.70;100206.97;15464342;28;20038;-48
2023/07/23 23:55:08;;;;;;;5.90;3.20;;;;;;;20.94;52.64;100198.38;15495358;28;20042;-47
